createdAt,value
2023-01-20T00:01:54.222Z,96.40
2023-01-20T00:04:22.164Z,96.10
2023-01-20T00:06:50.042Z,96.00
2023-01-20T00:09:19.075Z,96.30
2023-01-20T00:11:48.610Z,95.90
2023-01-20T00:14:16.756Z,96.20
2023-01-20T00:16:44.728Z,96.50
2023-01-20T00:19:14.538Z,96.30
2023-01-20T00:21:42.856Z,96.30
2023-01-20T00:24:10.730Z,96.00
2023-01-20T00:26:38.582Z,96.30
2023-01-20T00:29:07.899Z,96.30
2023-01-20T00:31:36.178Z,96.10
2023-01-20T00:34:05.175Z,95.90
2023-01-20T00:36:33.965Z,95.90
2023-01-20T00:39:02.688Z,95.90
2023-01-20T00:41:30.800Z,96.20
2023-01-20T11:41:44.477Z,93.80
2023-01-20T11:44:21.357Z,94.00
2023-01-20T11:46:49.279Z,93.80
2023-01-20T11:49:19.864Z,93.60
2023-01-20T11:51:50.592Z,93.80
2023-01-20T11:54:20.401Z,93.80
2023-01-20T11:56:53.035Z,93.70
2023-01-20T11:59:25.166Z,93.60
2023-01-20T12:01:57.983Z,93.60
2023-01-20T12:04:43.473Z,93.90
2023-01-20T12:07:14.944Z,94.00
2023-01-20T12:09:45.644Z,93.90
2023-01-20T12:12:21.788Z,94.00
2023-01-20T12:14:55.690Z,93.80
2023-01-20T12:17:41.643Z,94.00
2023-01-20T12:20:20.180Z,93.80
2023-01-20T12:23:00.361Z,93.60
2023-01-20T12:25:31.006Z,93.50
2023-01-20T12:28:06.582Z,93.30
2023-01-20T12:30:50.760Z,93.40
2023-01-20T12:33:22.697Z,93.40
2023-01-20T16:23:37.745Z,95.70
2023-01-20T16:26:17.598Z,95.60
2023-01-20T16:28:45.469Z,95.60
2023-01-20T16:31:14.373Z,95.70
2023-01-20T16:33:42.428Z,95.60
2023-01-20T16:36:12.835Z,95.60
2023-01-20T16:38:42.085Z,95.80
2023-01-20T16:41:15.269Z,95.90
2023-01-20T16:43:43.761Z,95.90
2023-01-20T16:46:14.635Z,95.70
2023-01-20T16:48:42.698Z,95.90
2023-01-20T16:51:13.475Z,95.80
2023-01-20T16:53:43.042Z,95.90
2023-01-20T16:56:17.670Z,95.60
2023-01-20T16:58:48.143Z,95.50
2023-01-20T17:01:21.031Z,95.40
2023-01-20T17:03:49.554Z,95.10
2023-01-20T17:06:19.823Z,95.10
2023-01-20T17:08:51.250Z,95.10
2023-01-20T17:11:19.917Z,95.20
2023-01-20T17:13:47.810Z,95.20
2023-01-20T17:16:16.314Z,95.20
2023-01-20T17:18:45.648Z,95.30
2023-01-20T17:21:14.488Z,95.50
2023-01-20T17:23:42.706Z,95.90
2023-01-20T17:26:12.001Z,96.00
2023-01-20T17:28:39.849Z,96.20
2023-01-20T17:31:08.400Z,96.00
2023-01-20T17:33:36.288Z,96.20
2023-01-20T17:36:06.493Z,96.50
2023-01-20T17:38:35.736Z,96.60
2023-01-20T17:41:04.699Z,96.70
2023-01-20T17:43:34.953Z,96.50
2023-01-20T17:46:03.160Z,96.50
2023-01-20T17:48:31.049Z,96.80
2023-01-20T17:50:59.303Z,96.80
2023-01-20T17:53:27.604Z,96.70
2023-01-20T17:56:11.014Z,96.60
2023-01-20T17:58:42.425Z,96.60
2023-01-20T18:01:12.340Z,96.50
2023-01-20T18:03:42.794Z,96.60
2023-01-20T18:06:12.208Z,96.50
2023-01-20T18:08:40.322Z,96.20
2023-01-20T18:11:10.349Z,96.30
2023-01-20T18:13:38.236Z,96.10
2023-01-20T18:16:10.755Z,96.40
2023-01-20T18:18:39.142Z,96.60
2023-01-20T18:21:11.756Z,96.70
2023-01-20T18:23:40.174Z,96.90
2023-01-20T18:26:09.177Z,96.90
2023-01-20T18:28:37.497Z,97.00
2023-01-20T18:31:08.940Z,97.00
2023-01-20T18:33:39.920Z,96.90
2023-01-20T18:36:10.059Z,96.90
2023-01-20T18:38:42.979Z,96.70
2023-01-20T18:41:11.499Z,97.00
2023-01-20T18:43:39.953Z,96.90
2023-01-20T18:46:10.679Z,97.10
2023-01-20T18:48:39.085Z,96.90
2023-01-20T18:51:07.939Z,97.00
2023-01-20T18:53:36.119Z,96.90
2023-01-20T18:56:05.256Z,97.00
2023-01-20T18:58:34.695Z,97.00
2023-01-20T19:01:07.257Z,97.20
2023-01-20T19:03:37.364Z,97.00
2023-01-20T19:06:06.060Z,97.00
2023-01-20T19:08:34.139Z,97.10
2023-01-20T19:11:02.511Z,97.20
2023-01-20T19:13:30.667Z,97.30
2023-01-20T19:15:59.188Z,97.20
2023-01-20T19:18:27.124Z,97.00
2023-01-20T19:20:56.360Z,97.10
2023-01-20T19:23:24.240Z,97.00
2023-01-20T19:26:01.080Z,96.70
2023-01-20T19:28:28.998Z,97.00
2023-01-20T19:30:57.219Z,97.00
2023-01-20T19:33:25.137Z,97.20
2023-01-20T19:35:53.013Z,97.20
2023-01-20T19:38:22.272Z,97.40
2023-01-20T19:40:50.148Z,97.10
2023-01-20T19:43:18.031Z,97.10
2023-01-20T19:45:46.376Z,96.70
2023-01-20T19:48:14.648Z,96.50
2023-01-20T19:50:42.992Z,96.50
2023-01-20T19:53:10.975Z,96.30
2023-01-20T19:55:40.212Z,96.60
2023-01-20T19:58:34.896Z,96.60
2023-01-20T20:01:10.335Z,96.30
2023-01-20T20:03:38.654Z,96.50
2023-01-20T20:06:08.078Z,95.80
2023-01-20T20:08:36.719Z,96.50
2023-01-20T20:11:06.093Z,96.50
2023-01-20T20:13:33.944Z,96.50
2023-01-20T20:16:02.663Z,96.80
2023-01-20T20:18:30.614Z,96.40
2023-01-20T20:20:58.629Z,96.70
2023-01-20T20:23:27.063Z,96.40
2023-01-20T20:25:56.526Z,96.60
2023-01-20T20:28:26.419Z,96.50
2023-01-20T20:30:55.364Z,96.70
2023-01-20T20:33:23.586Z,96.40
2023-01-20T20:35:51.565Z,96.50
2023-01-20T20:38:19.464Z,96.50
2023-01-20T20:40:47.362Z,96.40
2023-01-20T20:43:15.206Z,95.80
2023-01-20T20:45:44.426Z,95.90
2023-01-20T20:48:12.282Z,95.70
2023-01-20T20:50:40.172Z,95.60
2023-01-20T20:53:08.917Z,95.80
2023-01-20T20:55:40.639Z,95.60
2023-01-20T20:58:09.252Z,95.80
2023-01-20T21:00:37.386Z,95.60
2023-01-20T21:03:07.727Z,95.50
2023-01-20T21:05:35.726Z,96.30
2023-01-20T21:08:04.713Z,96.40
2023-01-20T21:10:32.650Z,96.50
2023-01-20T21:13:00.600Z,96.40
2023-01-20T21:15:30.388Z,96.10
2023-01-20T21:17:58.385Z,96.10
2023-01-20T21:20:28.829Z,96.10
2023-01-20T21:22:56.719Z,95.90
2023-01-20T21:25:24.705Z,95.70
2023-01-20T21:27:52.650Z,95.70
2023-01-20T21:30:21.305Z,95.40
2023-01-20T21:32:49.132Z,95.50
2023-01-20T21:35:17.146Z,95.20
2023-01-20T21:37:46.379Z,95.30
2023-01-20T21:40:14.755Z,95.50
2023-01-20T21:42:42.914Z,95.50
2023-01-20T21:45:10.726Z,95.00
2023-01-20T21:47:38.600Z,95.50
2023-01-20T21:50:24.931Z,95.40
2023-01-20T21:52:54.140Z,95.50
2023-01-20T21:55:24.042Z,95.30
2023-01-20T21:57:52.213Z,95.60
2023-01-20T22:00:20.679Z,95.70
2023-01-20T22:02:48.976Z,95.60
2023-01-20T22:05:18.125Z,95.40
2023-01-20T22:07:47.826Z,95.60
2023-01-20T22:10:17.994Z,95.60
2023-01-20T22:12:45.967Z,95.60
2023-01-20T22:15:13.827Z,95.60
2023-01-20T22:17:42.849Z,95.50
2023-01-20T22:20:12.049Z,95.60
2023-01-20T22:22:39.931Z,95.80
2023-01-20T22:25:08.275Z,95.70
2023-01-20T22:27:37.520Z,95.80
2023-01-20T22:30:06.061Z,95.80
2023-01-20T22:32:33.971Z,95.90
2023-01-20T22:35:01.816Z,95.80
2023-01-20T22:37:32.283Z,96.00
2023-01-20T22:40:01.960Z,95.70
2023-01-20T22:42:29.825Z,95.90
2023-01-20T22:44:59.024Z,95.50
2023-01-20T22:47:27.072Z,95.70
2023-01-20T22:49:56.685Z,95.60
2023-01-20T22:52:24.688Z,95.30
2023-01-20T22:54:52.583Z,95.50
2023-01-20T22:57:20.446Z,95.70
2023-01-20T22:59:48.303Z,95.40
2023-01-20T23:02:17.565Z,95.60
2023-01-20T23:04:45.449Z,95.70
2023-01-20T23:07:14.272Z,95.70
2023-01-20T23:09:42.147Z,95.50
2023-01-20T23:12:09.986Z,95.30
2023-01-20T23:14:58.174Z,95.70
2023-01-20T23:17:27.947Z,95.60
2023-01-20T23:19:55.883Z,95.50
2023-01-20T23:22:25.131Z,95.50
2023-01-20T23:24:52.945Z,95.60
2023-01-20T23:27:20.830Z,95.30
2023-01-20T23:29:49.070Z,95.50
2023-01-20T23:32:16.966Z,95.50
2023-01-20T23:34:46.174Z,95.20
2023-01-20T23:37:14.197Z,95.40
2023-01-20T23:39:42.075Z,95.50
2023-01-20T23:42:09.934Z,95.50
2023-01-20T23:44:37.843Z,95.30
2023-01-20T23:47:07.449Z,95.40
2023-01-20T23:49:35.328Z,95.20
2023-01-20T23:52:04.807Z,94.90
2023-01-20T23:54:32.665Z,95.20
2023-01-20T23:57:00.583Z,95.20
2023-01-20T23:59:28.456Z,95.20
